Time;durP1;ratioP1;P1;durP2;ratioP2;P2;SDS_P1;SDS_P2;PMS_P1;PMS_P2;Temp;Humidity;BMP_temperature;BMP_pressure;BME280_temperature;BME280_humidity;BME280_pressure;Samples;Min_cycle;Max_cycle;Signal;HPM_P1;HPM_P2
2023/06/25 00:10:33;;;;;;;14.2;10.6;;;;;;;14.59;90.17;;;;;
2023/06/25 00:20:34;;;;;;;14.2;10.6;;;;;;;14.54;89.86;;;;;
2023/06/25 00:31:33;;;;;;;14;10.6;;;;;;;14.39;90.2;;;;;
2023/06/25 00:42:33;;;;;;;14;10.6;;;;;;;14.24;90.49;;;;;
2023/06/25 00:53:34;;;;;;;14;10.6;;;;;;;14.17;91.25;;;;;
2023/06/25 01:03:33;;;;;;;17.6;10;;;;;;;14.16;90.69;;;;;
2023/06/25 01:13:33;;;;;;;17.6;10;;;;;;;14.06;90.92;;;;;
2023/06/25 01:24:34;;;;;;;17.6;10;;;;;;;13.96;91.54;;;;;
2023/06/25 01:35:33;;;;;;;14.3;9.4;;;;;;;13.95;91.32;;;;;
2023/06/25 01:45:33;;;;;;;14.3;9.4;;;;;;;13.95;91.55;;;;;
2023/06/25 01:55:33;;;;;;;14.3;9.4;;;;;;;14.03;90.73;;;;;
2023/06/25 02:06:33;;;;;;;14;9.3;;;;;;;13.98;90.63;;;;;
2023/06/25 02:16:33;;;;;;;14;9.3;;;;;;;13.78;90.78;;;;;
2023/06/25 02:27:33;;;;;;;11.8;6.5;;;;;;;13.74;90.77;;;;;
2023/06/25 02:37:33;;;;;;;11.8;6.5;;;;;;;13.7;90.77;;;;;
2023/06/25 02:47:34;;;;;;;11.8;6.5;;;;;;;13.71;90.44;;;;;
2023/06/25 02:57:33;;;;;;;8.5;5.5;;;;;;;13.69;90.14;;;;;
2023/06/25 03:08:34;;;;;;;8.5;5.5;;;;;;;13.76;90.56;;;;;
2023/06/25 03:19:33;;;;;;;8.5;5.5;;;;;;;13.94;90.56;;;;;
2023/06/25 03:29:33;;;;;;;10.7;5.8;;;;;;;14.13;90.4;;;;;
2023/06/25 03:39:34;;;;;;;10.7;5.8;;;;;;;14.45;90.05;;;;;
2023/06/25 03:50:34;;;;;;;10.7;5.8;;;;;;;14.76;90.15;;;;;
2023/06/25 04:00:34;;;;;;;10.4;7;;;;;;;15.1;89.35;;;;;
2023/06/25 04:11:33;;;;;;;10.4;7;;;;;;;15.44;87.61;;;;;
2023/06/25 04:22:34;;;;;;;10.4;7;;;;;;;15.87;86.05;;;;;
2023/06/25 04:33:40;;;;;;;9.6;6.9;;;;;;;16.29;85.46;;;;;
2023/06/25 04:43:34;;;;;;;9.6;6.9;;;;;;;16.29;84.08;;;;;
2023/06/25 04:54:34;;;;;;;9.6;6.9;;;;;;;17.07;84.01;;;;;
2023/06/25 05:05:34;;;;;;;12.7;6.8;;;;;;;17.24;82.5;;;;;
2023/06/25 05:15:34;;;;;;;12.7;6.8;;;;;;;16.99;82.81;;;;;
2023/06/25 05:26:34;;;;;;;10.3;7.4;;;;;;;17.22;82.6;;;;;
2023/06/25 05:37:34;;;;;;;10.3;7.4;;;;;;;17.41;82.32;;;;;
2023/06/25 05:47:34;;;;;;;10.3;7.4;;;;;;;17.9;82.94;;;;;
2023/06/25 05:57:34;;;;;;;12.2;8.7;;;;;;;17.98;81.36;;;;;
2023/06/25 06:07:34;;;;;;;12.2;8.7;;;;;;;18.33;81.3;;;;;
2023/06/25 06:17:34;;;;;;;12.2;8.7;;;;;;;18.54;79.69;;;;;
2023/06/25 06:28:34;;;;;;;13.5;11.9;;;;;;;18.64;78.92;;;;;
2023/06/25 06:38:34;;;;;;;13.5;11.9;;;;;;;19.01;79.5;;;;;
2023/06/25 06:49:34;;;;;;;13.5;11.9;;;;;;;19.03;77.6;;;;;
2023/06/25 06:59:34;;;;;;;17.8;13.3;;;;;;;19.35;77.54;;;;;
2023/06/25 07:10:35;;;;;;;17.8;13.3;;;;;;;19.69;76.79;;;;;
2023/06/25 07:20:34;;;;;;;17.8;13.3;;;;;;;20.03;76.48;;;;;
2023/06/25 07:31:34;;;;;;;17.8;12.8;;;;;;;20.5;76.61;;;;;
2023/06/25 07:41:34;;;;;;;17.8;12.8;;;;;;;20.79;74.83;;;;;
2023/06/25 07:52:34;;;;;;;17.8;12.8;;;;;;;21.11;72.82;;;;;
2023/06/25 08:02:34;;;;;;;13.7;10.8;;;;;;;21.17;72.05;;;;;
2023/06/25 08:12:34;;;;;;;13.7;10.8;;;;;;;21.36;70.77;;;;;
2023/06/25 08:23:34;;;;;;;13.7;10.8;;;;;;;21.88;71.75;;;;;
2023/06/25 08:34:34;;;;;;;18;12.6;;;;;;;22.01;70.35;;;;;
2023/06/25 08:44:34;;;;;;;18;12.6;;;;;;;22.19;67.88;;;;;
2023/06/25 08:55:34;;;;;;;18;12.6;;;;;;;22.55;65.25;;;;;
2023/06/25 09:05:34;;;;;;;14.7;11.2;;;;;;;23.27;65.78;;;;;
2023/06/25 09:15:34;;;;;;;14.7;11.2;;;;;;;23.54;67.32;;;;;
2023/06/25 09:25:34;;;;;;;14.7;11.2;;;;;;;23.85;61.71;;;;;
2023/06/25 09:36:35;;;;;;;15.2;10.3;;;;;;;24.67;61.49;;;;;
2023/06/25 09:46:34;;;;;;;15.2;10.3;;;;;;;24.99;56.13;;;;;
2023/06/25 09:56:34;;;;;;;12;7.8;;;;;;;24.37;57.45;;;;;
2023/06/25 10:06:34;;;;;;;12;7.8;;;;;;;24.51;57.99;;;;;
2023/06/25 10:17:34;;;;;;;12;7.8;;;;;;;25.48;54.15;;;;;
2023/06/25 10:27:34;;;;;;;10.4;8.4;;;;;;;24.86;55.37;;;;;
2023/06/25 10:38:34;;;;;;;10.4;8.4;;;;;;;24.72;54.32;;;;;
2023/06/25 10:48:34;;;;;;;10.4;8.4;;;;;;;24.87;51.23;;;;;
2023/06/25 10:58:34;;;;;;;8.7;6.5;;;;;;;25.27;52.55;;;;;
2023/06/25 11:09:34;;;;;;;8.7;6.5;;;;;;;25.11;54.16;;;;;
2023/06/25 11:20:34;;;;;;;8.7;6.5;;;;;;;25.38;52.17;;;;;
2023/06/25 11:30:34;;;;;;;15.7;7.5;;;;;;;26.06;48.04;;;;;
2023/06/25 11:40:34;;;;;;;15.7;7.5;;;;;;;25.66;50.99;;;;;
2023/06/25 11:51:34;;;;;;;15.7;7.5;;;;;;;25.44;50.43;;;;;
2023/06/25 12:01:34;;;;;;;9.2;6.4;;;;;;;25.61;47.98;;;;;
2023/06/25 12:12:34;;;;;;;9.2;6.4;;;;;;;26.51;48.81;;;;;
2023/06/25 12:23:34;;;;;;;9.2;6.4;;;;;;;26.93;47;;;;;
2023/06/25 12:34:34;;;;;;;11;6.4;;;;;;;27.07;44.3;;;;;
2023/06/25 12:45:34;;;;;;;11;6.4;;;;;;;26.71;45.09;;;;;
2023/06/25 12:55:34;;;;;;;11;6.4;;;;;;;26.82;43.47;;;;;
2023/06/25 13:06:34;;;;;;;10.8;7.3;;;;;;;26.2;45.26;;;;;
2023/06/25 13:16:34;;;;;;;10.8;7.3;;;;;;;27.34;45.46;;;;;
2023/06/25 13:26:34;;;;;;;10.8;7.3;;;;;;;27.48;42.58;;;;;
2023/06/25 13:37:34;;;;;;;8.8;5.1;;;;;;;27.78;41.97;;;;;
2023/06/25 13:47:34;;;;;;;8.8;5.1;;;;;;;27.45;41.91;;;;;
2023/06/25 13:58:34;;;;;;;7.6;4.1;;;;;;;28.09;41.18;;;;;
2023/06/25 14:08:34;;;;;;;7.6;4.1;;;;;;;28.34;42.94;;;;;
2023/06/25 14:18:34;;;;;;;7.6;4.1;;;;;;;28.4;42.4;;;;;
2023/06/25 14:29:34;;;;;;;7.5;5.1;;;;;;;27.85;42.87;;;;;
2023/06/25 14:40:34;;;;;;;7.5;5.1;;;;;;;26.61;44.98;;;;;
2023/06/25 14:50:34;;;;;;;7.5;5.1;;;;;;;26.49;45.84;;;;;
2023/06/25 15:00:34;;;;;;;9.1;5.5;;;;;;;26.08;46.1;;;;;
2023/06/25 15:10:34;;;;;;;9.1;5.5;;;;;;;25.93;46.62;;;;;
2023/06/25 15:21:34;;;;;;;9.1;5.5;;;;;;;25.78;47.16;;;;;
2023/06/25 15:31:34;;;;;;;8.9;5.4;;;;;;;25.63;47.84;;;;;
2023/06/25 15:41:35;;;;;;;8.9;5.4;;;;;;;25.6;46.78;;;;;
2023/06/25 15:52:34;;;;;;;8.9;5.4;;;;;;;25.87;46.99;;;;;
2023/06/25 16:03:36;;;;;;;8.6;5.6;;;;;;;27.18;42.4;;;;;
2023/06/25 16:14:34;;;;;;;8.6;5.6;;;;;;;29.17;39.22;;;;;
2023/06/25 16:25:34;;;;;;;8.6;5.6;;;;;;;33.08;34.55;;;;;
2023/06/25 16:36:34;;;;;;;10.8;7.3;;;;;;;32.04;33.27;;;;;
2023/06/25 16:46:35;;;;;;;10.8;7.3;;;;;;;29.58;37.17;;;;;
2023/06/25 16:56:34;;;;;;;10.8;7.3;;;;;;;27.96;39.65;;;;;
2023/06/25 17:07:34;;;;;;;6.9;5;;;;;;;27.3;40.52;;;;;
2023/06/25 17:18:34;;;;;;;6.9;5;;;;;;;26.74;42.13;;;;;
2023/06/25 17:28:35;;;;;;;7.7;4.5;;;;;;;26.12;43.3;;;;;
2023/06/25 17:39:35;;;;;;;7.7;4.5;;;;;;;25.19;44.38;;;;;
2023/06/25 17:49:35;;;;;;;7.7;4.5;;;;;;;24.86;46.04;;;;;
2023/06/25 18:00:35;;;;;;;7.4;4.3;;;;;;;24.08;47.93;;;;;
2023/06/25 18:11:34;;;;;;;7.4;4.3;;;;;;;23.66;49.44;;;;;
2023/06/25 18:21:35;;;;;;;7.4;4.3;;;;;;;23.1;50.77;;;;;
2023/06/25 18:32:34;;;;;;;8.5;4.4;;;;;;;22.46;52.41;;;;;
2023/06/25 18:42:34;;;;;;;8.5;4.4;;;;;;;21.9;54.79;;;;;
2023/06/25 18:53:35;;;;;;;8.5;4.4;;;;;;;21.41;57.09;;;;;
2023/06/25 19:04:34;;;;;;;7.5;4.3;;;;;;;21.1;57.99;;;;;
2023/06/25 19:14:35;;;;;;;7.5;4.3;;;;;;;20.81;62.51;;;;;
2023/06/25 19:25:35;;;;;;;7.5;4.3;;;;;;;20.72;59.21;;;;;
2023/06/25 19:35:35;;;;;;;10.9;5.2;;;;;;;20.56;61.55;;;;;
2023/06/25 19:45:35;;;;;;;10.9;5.2;;;;;;;20.39;65.54;;;;;
2023/06/25 19:56:34;;;;;;;10.9;5.2;;;;;;;20.17;64.46;;;;;
2023/06/25 20:06:37;;;;;;;7;4.3;;;;;;;19.97;64.46;;;;;
2023/06/25 20:17:35;;;;;;;7;4.3;;;;;;;19.82;65.58;;;;;
2023/06/25 20:27:35;;;;;;;7.6;4.8;;;;;;;19.56;67.22;;;;;
2023/06/25 20:37:35;;;;;;;7.6;4.8;;;;;;;19.37;66.46;;;;;
2023/06/25 20:47:38;;;;;;;7.6;4.8;;;;;;;19.11;65.97;;;;;
2023/06/25 20:58:35;;;;;;;8.8;5.2;;;;;;;18.97;65.91;;;;;
2023/06/25 21:08:35;;;;;;;8.8;5.2;;;;;;;18.85;66.97;;;;;
2023/06/25 21:18:35;;;;;;;8.8;5.2;;;;;;;18.71;67.16;;;;;
2023/06/25 21:28:35;;;;;;;9.5;5.3;;;;;;;18.63;68.23;;;;;
2023/06/25 21:38:35;;;;;;;9.5;5.3;;;;;;;18.59;68.16;;;;;
2023/06/25 21:48:35;;;;;;;9.5;5.3;;;;;;;18.56;68.14;;;;;
2023/06/25 21:58:35;;;;;;;9.8;4.8;;;;;;;18.56;67.52;;;;;
2023/06/25 22:09:35;;;;;;;9.8;4.8;;;;;;;18.5;67.74;;;;;
2023/06/25 22:20:35;;;;;;;9.8;4.8;;;;;;;18.31;68.27;;;;;
2023/06/25 22:30:35;;;;;;;9.1;5.6;;;;;;;18.09;69.27;;;;;
2023/06/25 22:41:35;;;;;;;9.1;5.6;;;;;;;17.91;69.23;;;;;
2023/06/25 22:51:35;;;;;;;9.1;5.6;;;;;;;17.68;69.82;;;;;
2023/06/25 23:01:35;;;;;;;11.8;5.7;;;;;;;17.32;70.18;;;;;
2023/06/25 23:11:35;;;;;;;11.8;5.7;;;;;;;16.9;72.18;;;;;
2023/06/25 23:22:35;;;;;;;11.8;5.7;;;;;;;16.51;74.27;;;;;
2023/06/25 23:33:35;;;;;;;9.9;5.3;;;;;;;16.29;74.51;;;;;
2023/06/25 23:43:35;;;;;;;9.9;5.3;;;;;;;16.09;74.88;;;;;
2023/06/25 23:54:36;;;;;;;9.9;5.3;;;;;;;16.09;75.48;;;;;
